createdAt,value
2023-05-15T00:00:21.454Z,99817.77
2023-05-15T00:03:08.677Z,99813.73
2023-05-15T00:05:35.735Z,99811.60
2023-05-15T00:08:05.214Z,99808.74
2023-05-15T00:10:32.438Z,99807.17
2023-05-15T00:12:59.322Z,99804.30
2023-05-15T00:15:26.415Z,99800.92
2023-05-15T00:17:54.760Z,99801.20
2023-05-15T00:20:22.415Z,99801.24
2023-05-15T00:22:49.358Z,99795.30
2023-05-15T00:25:16.725Z,99795.83
2023-05-15T00:27:43.657Z,99789.51
2023-05-15T00:30:12.643Z,99783.80
2023-05-15T00:32:39.857Z,99777.89
2023-05-15T00:35:08.056Z,99775.16
2023-05-15T00:37:34.924Z,99775.72
2023-05-15T00:40:04.754Z,99772.64
2023-05-15T00:42:31.992Z,99769.70
2023-05-15T00:45:01.924Z,99763.10
2023-05-15T00:47:30.057Z,99759.08
2023-05-15T00:49:58.400Z,99753.98
2023-05-15T00:52:26.131Z,99752.27
2023-05-15T00:54:53.349Z,99749.67
2023-05-15T00:57:21.548Z,99752.54
2023-05-15T00:59:50.922Z,99763.64
2023-05-15T01:02:21.445Z,99775.66
2023-05-15T01:04:48.817Z,99777.56
2023-05-15T01:07:16.252Z,99771.91
2023-05-15T01:09:45.009Z,99769.82
2023-05-15T01:12:15.914Z,99759.17
2023-05-15T01:14:43.086Z,99749.48
2023-05-15T01:17:10.425Z,99753.09
2023-05-15T01:19:37.859Z,99756.17
2023-05-15T01:22:35.755Z,99761.96
2023-05-15T01:25:33.423Z,99757.30
2023-05-15T01:28:04.624Z,99736.27
2023-05-15T01:30:34.490Z,99722.44
2023-05-15T01:33:07.674Z,99722.08
2023-05-15T01:35:45.091Z,99718.86
2023-05-15T01:38:20.090Z,99716.92
2023-05-15T01:40:49.623Z,99723.40
2023-05-15T01:43:24.525Z,99727.77
2023-05-15T01:45:51.404Z,99720.09
2023-05-15T01:48:21.206Z,99715.62
2023-05-15T01:50:50.898Z,99712.71
2023-05-15T01:53:20.044Z,99704.95
2023-05-15T01:55:48.085Z,99699.98
2023-05-15T01:58:16.750Z,99698.77
2023-05-15T02:00:44.829Z,99695.52
2023-05-15T02:03:12.694Z,99687.69
2023-05-15T02:05:41.837Z,99689.58
2023-05-15T02:08:10.697Z,99694.69
2023-05-15T02:10:38.540Z,99700.43
2023-05-15T02:13:06.125Z,99706.82
2023-05-15T02:15:33.837Z,99704.14
2023-05-15T02:18:00.865Z,99696.09
2023-05-15T02:20:28.076Z,99688.20
2023-05-15T02:22:55.317Z,99688.16
2023-05-15T02:25:30.235Z,99683.77
2023-05-15T02:28:02.218Z,99683.39
2023-05-15T02:30:40.009Z,99680.41
2023-05-15T02:33:20.625Z,99669.82
2023-05-15T02:36:00.730Z,99668.92
2023-05-15T02:38:32.153Z,99664.68
2023-05-15T02:41:01.791Z,99658.49
2023-05-15T02:43:30.372Z,99645.59
2023-05-15T02:45:58.634Z,99637.42
2023-05-15T02:48:26.410Z,99646.45
2023-05-15T02:50:54.586Z,99635.16
2023-05-15T02:53:22.352Z,99625.98
2023-05-15T02:55:49.418Z,99627.59
2023-05-15T02:58:16.847Z,99618.52
2023-05-15T03:00:43.703Z,99617.36
2023-05-15T03:03:10.752Z,99615.50
2023-05-15T03:05:38.225Z,99616.91
2023-05-15T03:08:06.381Z,99616.00
2023-05-15T03:10:33.424Z,99617.10
2023-05-15T03:13:00.619Z,99608.71
2023-05-15T03:15:27.932Z,99598.15
2023-05-15T03:17:55.017Z,99595.39
2023-05-15T03:20:22.152Z,99592.38
2023-05-15T03:22:49.202Z,99588.04
2023-05-15T03:25:16.133Z,99587.04
2023-05-15T03:27:43.075Z,99580.25
2023-05-15T03:30:11.722Z,99576.46
2023-05-15T03:32:38.855Z,99574.14
2023-05-15T03:35:06.480Z,99570.35
2023-05-15T03:37:33.611Z,99573.89
2023-05-15T03:40:00.608Z,99565.12
2023-05-15T03:42:28.024Z,99555.04
2023-05-15T03:44:56.340Z,99548.80
2023-05-15T03:47:23.602Z,99551.20
2023-05-15T03:49:53.372Z,99552.31
2023-05-15T03:52:23.268Z,99544.89
2023-05-15T03:54:51.045Z,99546.13
2023-05-15T03:57:18.700Z,99544.79
2023-05-15T03:59:45.570Z,99547.00
2023-05-15T04:02:13.122Z,99549.36
2023-05-15T04:04:40.593Z,99546.58
2023-05-15T04:07:10.276Z,99545.01
2023-05-15T04:09:37.348Z,99544.45
2023-05-15T04:12:04.829Z,99541.25
2023-05-15T04:14:31.788Z,99535.44
2023-05-15T04:16:58.871Z,99519.34
2023-05-15T04:19:26.074Z,99523.64
2023-05-15T04:21:52.973Z,99519.23
2023-05-15T04:24:19.987Z,99522.48
2023-05-15T04:26:47.240Z,99513.36
2023-05-15T04:29:14.275Z,99503.38
2023-05-15T04:31:41.283Z,99502.22
2023-05-15T04:34:10.647Z,99501.08
2023-05-15T04:36:37.557Z,99505.65
2023-05-15T04:39:04.522Z,99500.34
2023-05-15T04:41:33.270Z,99506.16
2023-05-15T04:44:00.315Z,99503.02
2023-05-15T04:46:29.354Z,99505.00
2023-05-15T04:48:56.456Z,99503.36
2023-05-15T04:51:23.978Z,99499.95
2023-05-15T04:53:50.851Z,99499.52
2023-05-15T04:56:17.814Z,99495.37
2023-05-15T04:58:44.727Z,99492.70
2023-05-15T05:01:11.738Z,99491.11
2023-05-15T05:03:38.969Z,99482.26
2023-05-15T05:06:06.411Z,99482.84
2023-05-15T05:08:33.337Z,99486.14
2023-05-15T05:11:00.596Z,99484.20
2023-05-15T05:13:27.574Z,99485.08
2023-05-15T05:15:54.620Z,99475.40
2023-05-15T05:18:21.844Z,99466.80
2023-05-15T05:20:49.830Z,99458.59
2023-05-15T05:23:18.233Z,99461.97
2023-05-15T05:25:45.236Z,99457.86
2023-05-15T05:28:12.044Z,99456.77
2023-05-15T05:30:38.916Z,99459.14
2023-05-15T05:33:06.565Z,99456.08
2023-05-15T05:35:33.856Z,99455.56
2023-05-15T05:38:01.194Z,99447.15
2023-05-15T05:40:28.454Z,99450.23
2023-05-15T05:42:55.296Z,99448.15
2023-05-15T05:45:22.223Z,99450.23
2023-05-15T05:47:49.510Z,99447.08
2023-05-15T05:50:16.477Z,99451.29
2023-05-15T05:52:43.775Z,99452.25
2023-05-15T05:55:11.840Z,99460.14
2023-05-15T05:57:38.846Z,99459.11
2023-05-15T06:00:08.891Z,99456.21
2023-05-15T06:02:37.573Z,99453.52
2023-05-15T06:05:06.467Z,99460.19
2023-05-15T06:07:33.949Z,99459.30
2023-05-15T06:10:01.565Z,99462.91
2023-05-15T06:12:29.137Z,99466.42
2023-05-15T06:14:56.217Z,99467.92
2023-05-15T06:17:23.393Z,99469.63
2023-05-15T06:19:50.654Z,99474.04
2023-05-15T06:22:17.443Z,99481.52
2023-05-15T06:24:44.511Z,99483.64
2023-05-15T06:27:11.697Z,99479.71
2023-05-15T06:29:38.602Z,99480.56
2023-05-15T06:32:24.889Z,99482.67
2023-05-15T06:34:51.820Z,99479.96
2023-05-15T06:37:18.800Z,99487.41
2023-05-15T06:39:46.068Z,99487.84
2023-05-15T06:42:15.252Z,99484.42
2023-05-15T06:44:42.098Z,99490.77
2023-05-15T06:47:09.866Z,99493.16
2023-05-15T06:49:36.805Z,99487.40
2023-05-15T06:52:03.868Z,99489.21
2023-05-15T06:54:31.007Z,99490.02
2023-05-15T06:56:58.151Z,99483.68
2023-05-15T06:59:27.888Z,99482.27
2023-05-15T07:01:56.079Z,99486.98
2023-05-15T07:04:29.000Z,99479.77
2023-05-15T07:06:56.281Z,99483.64
2023-05-15T07:09:25.835Z,99478.84
2023-05-15T07:11:53.071Z,99481.37
2023-05-15T07:14:23.271Z,99483.24
2023-05-15T07:16:50.319Z,99481.63
2023-05-15T07:19:21.090Z,99479.21
2023-05-15T07:21:51.368Z,99472.05
2023-05-15T07:24:18.355Z,99473.66
2023-05-15T07:26:58.004Z,99470.95
2023-05-15T07:29:26.321Z,99475.75
2023-05-15T07:31:53.404Z,99480.98
2023-05-15T07:34:20.860Z,99477.56
2023-05-15T07:36:48.024Z,99475.33
2023-05-15T07:39:14.995Z,99469.17
2023-05-15T07:41:41.890Z,99468.31
2023-05-15T07:44:09.419Z,99465.06
2023-05-15T07:46:36.263Z,99464.55
2023-05-15T07:49:03.286Z,99464.48
2023-05-15T07:51:30.368Z,99460.19
2023-05-15T07:53:57.320Z,99456.36
2023-05-15T07:56:24.470Z,99453.06
2023-05-15T07:58:51.939Z,99453.95
2023-05-15T08:01:19.033Z,99456.67
2023-05-15T08:03:46.300Z,99444.53
2023-05-15T08:06:13.581Z,99440.77
2023-05-15T08:08:40.578Z,99439.86
2023-05-15T08:11:07.883Z,99438.27
2023-05-15T08:13:35.338Z,99441.61
2023-05-15T08:16:02.273Z,99438.59
2023-05-15T08:18:29.162Z,99433.21
2023-05-15T08:20:56.343Z,99425.13
2023-05-15T08:23:23.324Z,99427.13
2023-05-15T08:25:50.325Z,99422.69
2023-05-15T08:28:20.798Z,99419.44
2023-05-15T08:30:47.655Z,99420.64
2023-05-15T08:33:15.113Z,99420.35
2023-05-15T08:35:42.363Z,99422.76
2023-05-15T08:38:09.298Z,99419.82
2023-05-15T08:40:40.231Z,99410.54
2023-05-15T08:43:15.064Z,99403.34
2023-05-15T08:45:43.156Z,99403.88
2023-05-15T08:48:15.212Z,99400.05
2023-05-15T08:50:44.078Z,99398.74
2023-05-15T08:53:21.042Z,99392.29
2023-05-15T08:55:48.030Z,99387.60
2023-05-15T08:58:16.945Z,99385.38
2023-05-15T09:00:46.130Z,99376.16
2023-05-15T09:03:20.105Z,99376.52
2023-05-15T09:05:49.230Z,99386.69
2023-05-15T09:08:18.725Z,99384.78
2023-05-15T09:10:47.122Z,99393.52
2023-05-15T09:13:15.903Z,99396.66
2023-05-15T09:15:43.282Z,99398.02
2023-05-15T09:18:11.440Z,99404.55
2023-05-15T09:20:39.808Z,99412.11
2023-05-15T09:23:22.703Z,99405.48
2023-05-15T09:25:53.508Z,99397.84
2023-05-15T09:28:30.336Z,99391.86
2023-05-15T09:31:02.390Z,99392.66
2023-05-15T09:33:33.108Z,99391.09
2023-05-15T09:36:00.163Z,99386.17
2023-05-15T09:38:27.168Z,99386.98
2023-05-15T09:41:04.539Z,99379.47
2023-05-15T09:43:34.638Z,99372.77
2023-05-15T09:46:01.799Z,99372.29
2023-05-15T09:48:29.729Z,99370.00
2023-05-15T09:50:57.555Z,99370.60
2023-05-15T09:53:25.849Z,99370.25
2023-05-15T09:55:56.256Z,99364.61
2023-05-15T09:58:25.661Z,99364.41
2023-05-15T10:00:52.785Z,99359.19
2023-05-15T10:03:21.226Z,99355.92
2023-05-15T10:05:48.483Z,99351.44
2023-05-15T10:08:16.583Z,99349.21
2023-05-15T10:10:44.693Z,99344.84
2023-05-15T10:13:12.356Z,99346.58
2023-05-15T10:15:40.554Z,99350.48
2023-05-15T10:18:08.964Z,99353.27
2023-05-15T10:20:36.853Z,99355.46
2023-05-15T10:23:06.261Z,99352.85
2023-05-15T10:25:39.465Z,99350.13
2023-05-15T10:28:09.710Z,99353.89
2023-05-15T10:30:37.646Z,99355.57
2023-05-15T10:33:05.654Z,99359.80
2023-05-15T10:35:32.964Z,99364.52
2023-05-15T10:38:01.395Z,99366.34
2023-05-15T10:40:29.660Z,99354.96
2023-05-15T10:42:58.933Z,99365.95
2023-05-15T10:45:26.391Z,99361.48
2023-05-15T10:47:54.167Z,99362.67
2023-05-15T10:50:21.266Z,99360.67
2023-05-15T10:52:51.967Z,99361.30
2023-05-15T10:55:19.938Z,99357.98
2023-05-15T10:57:48.365Z,99356.26
2023-05-15T11:00:32.372Z,99352.08
2023-05-15T11:03:01.240Z,99351.93
2023-05-15T11:05:30.720Z,99347.57
2023-05-15T11:08:34.726Z,99343.22
2023-05-15T11:11:03.111Z,99343.38
2023-05-15T11:14:15.413Z,99343.77
2023-05-15T11:17:01.847Z,99342.05
2023-05-15T11:19:36.001Z,99352.43
2023-05-15T11:22:05.015Z,99350.81
2023-05-15T11:24:33.305Z,99352.33
2023-05-15T11:27:05.132Z,99345.73
2023-05-15T11:29:35.234Z,99338.41
2023-05-15T11:32:02.050Z,99346.45
2023-05-15T11:34:35.746Z,99330.63
2023-05-15T11:37:02.820Z,99331.88
2023-05-15T11:39:30.034Z,99332.85
2023-05-15T11:41:59.230Z,99323.03
2023-05-15T11:44:27.354Z,99328.95
2023-05-15T11:46:56.951Z,99327.95
2023-05-15T11:49:26.465Z,99323.64
2023-05-15T11:52:14.401Z,99321.36
2023-05-15T11:54:41.383Z,99319.70
2023-05-15T11:57:22.506Z,99310.70
2023-05-15T11:59:49.347Z,99310.42
2023-05-15T12:02:17.664Z,99310.70
2023-05-15T12:04:45.063Z,99311.17
2023-05-15T12:07:12.202Z,99308.60
2023-05-15T12:09:40.721Z,99307.17
2023-05-15T12:12:13.885Z,99300.13
2023-05-15T12:14:42.309Z,99305.95
2023-05-15T12:17:09.614Z,99306.02
2023-05-15T12:19:38.968Z,99303.71
2023-05-15T12:22:08.560Z,99307.96
2023-05-15T12:24:39.778Z,99305.93
2023-05-15T12:27:08.026Z,99301.23
2023-05-15T12:29:35.365Z,99303.65
2023-05-15T12:32:02.441Z,99312.84
2023-05-15T12:34:29.681Z,99294.73
2023-05-15T12:36:59.753Z,99298.38
2023-05-15T12:39:26.975Z,99290.34
2023-05-15T12:41:55.088Z,99285.63
2023-05-15T12:44:22.927Z,99281.52
2023-05-15T12:46:56.613Z,99279.67
2023-05-15T12:49:26.930Z,99281.98
2023-05-15T12:51:53.787Z,99266.70
2023-05-15T12:54:21.740Z,99268.13
2023-05-15T12:56:49.834Z,99269.90
2023-05-15T12:59:16.825Z,99263.03
2023-05-15T13:01:44.824Z,99261.77
2023-05-15T13:04:12.528Z,99255.99
2023-05-15T13:06:46.893Z,99255.23
2023-05-15T13:09:15.408Z,99239.52
2023-05-15T13:11:46.015Z,99246.73
2023-05-15T13:14:17.599Z,99242.10
2023-05-15T13:16:46.421Z,99246.56
2023-05-15T13:19:14.211Z,99236.02
2023-05-15T13:21:51.891Z,99230.10
2023-05-15T13:24:19.033Z,99222.23
2023-05-15T13:26:48.540Z,99231.00
2023-05-15T13:29:36.415Z,99227.94
2023-05-15T13:32:03.317Z,99231.93
2023-05-15T13:34:30.463Z,99234.81
2023-05-15T13:36:57.416Z,99236.02
2023-05-15T13:39:24.828Z,99228.67
2023-05-15T13:41:51.942Z,99222.98
2023-05-15T13:44:19.251Z,99213.50
2023-05-15T13:46:47.744Z,99220.02
2023-05-15T13:49:22.057Z,99224.04
2023-05-15T13:52:09.527Z,99216.08
2023-05-15T13:54:36.499Z,99211.73
2023-05-15T13:57:03.650Z,99212.73
2023-05-15T13:59:30.459Z,99211.73
2023-05-15T14:01:57.637Z,99211.52
2023-05-15T14:04:24.711Z,99204.23
2023-05-15T14:06:52.446Z,99206.16
2023-05-15T14:09:19.444Z,99205.52
2023-05-15T14:11:46.398Z,99208.89
2023-05-15T14:14:13.343Z,99207.34
2023-05-15T14:16:43.755Z,99209.59
2023-05-15T14:19:10.946Z,99215.19
2023-05-15T14:21:38.212Z,99203.48
2023-05-15T14:24:05.724Z,99203.10
2023-05-15T14:26:33.023Z,99194.98
2023-05-15T14:29:00.017Z,99192.73
2023-05-15T14:31:27.264Z,99196.88
2023-05-15T14:33:54.787Z,99182.48
2023-05-15T14:36:21.629Z,99183.25
2023-05-15T14:38:49.196Z,99182.80
2023-05-15T14:41:16.538Z,99176.36
2023-05-15T14:43:43.767Z,99192.37
2023-05-15T14:46:11.499Z,99194.19
2023-05-15T14:48:38.630Z,99195.98
2023-05-15T14:51:05.929Z,99194.23
2023-05-15T14:53:32.810Z,99185.58
2023-05-15T14:55:59.842Z,99182.60
2023-05-15T14:58:27.667Z,99182.08
2023-05-15T15:00:54.512Z,99181.39
2023-05-15T15:03:22.136Z,99179.52
2023-05-15T15:05:49.217Z,99192.11
2023-05-15T15:08:16.041Z,99187.98
2023-05-15T15:10:44.010Z,99199.96
2023-05-15T15:13:13.103Z,99206.98
2023-05-15T15:15:40.080Z,99204.38
2023-05-15T15:18:07.828Z,99207.66
2023-05-15T15:20:42.257Z,99211.69
2023-05-15T15:23:09.286Z,99209.75
2023-05-15T15:25:37.118Z,99206.89
2023-05-15T15:28:04.578Z,99193.21
2023-05-15T15:30:33.836Z,99189.59
2023-05-15T15:33:01.194Z,99196.23
2023-05-15T15:35:28.380Z,99186.84
2023-05-15T15:37:55.429Z,99194.98
2023-05-15T15:40:23.937Z,99184.88
2023-05-15T15:42:51.281Z,99177.98
2023-05-15T15:45:21.796Z,99175.09
2023-05-15T15:47:48.865Z,99173.34
2023-05-15T15:50:16.151Z,99172.13
2023-05-15T15:52:43.550Z,99156.33
2023-05-15T15:55:12.293Z,99151.70
2023-05-15T15:57:39.537Z,99155.48
2023-05-15T16:00:10.392Z,99149.83
2023-05-15T16:02:37.697Z,99150.59
2023-05-15T16:05:07.820Z,99142.68
2023-05-15T16:07:35.026Z,99159.89
2023-05-15T16:10:11.556Z,99158.72
2023-05-15T16:12:40.670Z,99155.10
2023-05-15T16:17:41.775Z,99153.30
2023-05-15T16:20:10.978Z,99155.59
2023-05-15T16:22:38.140Z,99157.49
2023-05-15T16:25:05.893Z,99164.09
2023-05-15T16:27:32.726Z,99168.17
2023-05-15T16:29:59.597Z,99167.73
2023-05-15T16:32:27.741Z,99165.08
2023-05-15T16:34:54.817Z,99159.58
2023-05-15T16:37:21.653Z,99158.96
2023-05-15T16:39:50.921Z,99147.39
2023-05-15T16:42:17.851Z,99143.61
2023-05-15T16:44:44.847Z,99148.02
2023-05-15T16:47:11.956Z,99149.90
2023-05-15T16:49:38.810Z,99150.25
2023-05-15T16:52:06.336Z,99147.41
2023-05-15T16:54:33.894Z,99150.03
2023-05-15T16:57:00.789Z,99147.58
2023-05-15T16:59:27.735Z,99142.34
2023-05-15T17:01:55.027Z,99144.92
2023-05-15T17:04:21.939Z,99153.73
2023-05-15T17:06:48.885Z,99156.34
2023-05-15T17:09:16.152Z,99153.98
2023-05-15T17:11:43.078Z,99157.09
2023-05-15T17:14:09.916Z,99148.82
2023-05-15T17:16:37.133Z,99147.91
2023-05-15T17:19:04.300Z,99154.73
2023-05-15T17:21:32.020Z,99155.67
2023-05-15T17:23:59.464Z,99146.17
2023-05-15T17:26:29.558Z,99152.73
2023-05-15T17:28:56.712Z,99150.08
2023-05-15T17:31:23.872Z,99147.08
2023-05-15T17:33:50.927Z,99146.48
2023-05-15T17:36:17.967Z,99147.54
2023-05-15T17:38:45.076Z,99148.41
2023-05-15T17:41:11.979Z,99145.32
2023-05-15T17:43:38.864Z,99148.74
2023-05-15T17:46:06.489Z,99158.98
2023-05-15T17:48:33.894Z,99158.19
2023-05-15T17:51:01.681Z,99154.11
2023-05-15T17:53:32.418Z,99174.94
2023-05-15T17:56:02.256Z,99171.89
2023-05-15T17:58:32.168Z,99179.98
2023-05-15T18:00:59.203Z,99187.84
2023-05-15T18:03:26.683Z,99182.66
2023-05-15T18:05:54.215Z,99190.05
2023-05-15T18:08:21.175Z,99192.92
2023-05-15T18:10:48.182Z,99189.48
2023-05-15T18:13:16.692Z,99189.91
2023-05-15T18:15:43.640Z,99196.17
2023-05-15T18:18:11.205Z,99199.27
2023-05-15T18:20:38.238Z,99204.05
2023-05-15T18:23:05.197Z,99202.70
2023-05-15T18:25:36.671Z,99207.73
2023-05-15T18:28:03.842Z,99216.13
2023-05-15T18:30:31.237Z,99217.48
2023-05-15T18:32:58.461Z,99222.52
2023-05-15T18:35:26.095Z,99234.91
2023-05-15T18:37:53.255Z,99237.76
2023-05-15T18:40:20.677Z,99240.65
2023-05-15T18:42:47.805Z,99252.77
2023-05-15T18:45:16.211Z,99239.70
2023-05-15T18:47:43.339Z,99232.54
2023-05-15T18:50:13.700Z,99210.83
2023-05-15T18:52:40.712Z,99222.91
2023-05-15T18:55:10.285Z,99233.70
2023-05-15T18:57:37.545Z,99238.97
2023-05-15T19:00:05.228Z,99229.33
2023-05-15T19:02:32.723Z,99239.73
2023-05-15T19:05:00.254Z,99239.92
2023-05-15T19:07:28.735Z,99248.21
2023-05-15T19:09:55.778Z,99238.64
2023-05-15T19:12:24.076Z,99242.66
2023-05-15T19:14:51.308Z,99240.89
2023-05-15T19:17:20.319Z,99239.88
2023-05-15T19:19:47.272Z,99233.79
2023-05-15T19:22:14.293Z,99232.30
2023-05-15T19:24:41.376Z,99229.60
2023-05-15T19:27:08.597Z,99226.48
2023-05-15T19:29:35.645Z,99225.16
2023-05-15T19:32:03.079Z,99225.16
2023-05-15T19:34:30.764Z,99227.23
2023-05-15T19:36:57.811Z,99225.60
2023-05-15T19:39:24.964Z,99224.09
2023-05-15T19:41:52.007Z,99223.56
2023-05-15T19:44:18.855Z,99223.71
2023-05-15T19:46:46.755Z,99225.23
2023-05-15T19:49:14.087Z,99221.88
2023-05-15T19:51:41.379Z,99222.70
2023-05-15T19:54:18.914Z,99219.60
2023-05-15T19:56:48.836Z,99219.95
2023-05-15T19:59:15.769Z,99207.92
2023-05-15T20:01:43.424Z,99213.30
2023-05-15T20:04:13.667Z,99221.29
2023-05-15T20:06:40.856Z,99219.30
2023-05-15T20:09:07.669Z,99216.60
2023-05-15T20:11:36.952Z,99213.40
2023-05-15T20:14:04.109Z,99208.80
2023-05-15T20:16:31.302Z,99212.02
2023-05-15T20:18:58.388Z,99216.77
2023-05-15T20:21:25.452Z,99217.38
2023-05-15T20:23:52.734Z,99224.05
2023-05-15T20:26:20.066Z,99220.46
2023-05-15T20:28:47.030Z,99222.61
2023-05-15T20:31:14.136Z,99217.55
2023-05-15T20:33:41.583Z,99220.71
2023-05-15T20:36:09.391Z,99224.90
2023-05-15T20:38:38.592Z,99220.94
2023-05-15T20:41:05.773Z,99215.03
2023-05-15T20:43:32.614Z,99210.60
2023-05-15T20:46:00.065Z,99217.81
2023-05-15T20:48:27.285Z,99220.48
2023-05-15T20:50:54.804Z,99221.41
2023-05-15T20:53:21.990Z,99215.04
2023-05-15T20:55:49.241Z,99220.98
2023-05-15T20:58:16.665Z,99220.43
2023-05-15T21:00:43.964Z,99216.31
2023-05-15T21:03:11.795Z,99209.73
2023-05-15T21:05:38.997Z,99212.76
2023-05-15T21:08:06.539Z,99210.33
2023-05-15T21:10:33.699Z,99211.40
2023-05-15T21:13:00.748Z,99210.06
2023-05-15T21:15:27.812Z,99205.63
2023-05-15T21:17:54.938Z,99204.30
2023-05-15T21:20:22.090Z,99206.77
2023-05-15T21:22:49.536Z,99206.65
2023-05-15T21:25:19.106Z,99202.33
2023-05-15T21:27:46.298Z,99201.84
2023-05-15T21:30:15.085Z,99205.16
2023-05-15T21:32:42.069Z,99208.49
2023-05-15T21:35:10.666Z,99216.55
2023-05-15T21:37:37.856Z,99211.17
2023-05-15T21:40:06.684Z,99210.85
2023-05-15T21:42:34.115Z,99209.80
2023-05-15T21:45:01.557Z,99205.60
2023-05-15T21:47:29.051Z,99210.83
2023-05-15T21:49:56.685Z,99210.02
2023-05-15T21:52:24.285Z,99204.63
2023-05-15T21:54:51.168Z,99206.77
2023-05-15T21:57:18.403Z,99214.48
2023-05-15T21:59:45.722Z,99215.08
2023-05-15T22:02:12.642Z,99217.92
2023-05-15T22:04:39.762Z,99220.63
2023-05-15T22:07:07.385Z,99225.21
2023-05-15T22:09:34.305Z,99229.70
2023-05-15T22:12:01.213Z,99227.88
2023-05-15T22:14:28.803Z,99227.56
2023-05-15T22:16:56.016Z,99225.78
2023-05-15T22:19:32.646Z,99231.66
2023-05-15T22:22:00.494Z,99234.58
2023-05-15T22:24:27.370Z,99234.89
2023-05-15T22:26:54.384Z,99235.89
2023-05-15T22:29:21.956Z,99236.30
2023-05-15T22:31:48.872Z,99231.98
2023-05-15T22:34:15.941Z,99240.18
2023-05-15T22:36:42.961Z,99242.10
2023-05-15T22:39:10.075Z,99241.38
2023-05-15T22:41:36.987Z,99250.09
2023-05-15T22:44:04.988Z,99250.17
2023-05-15T22:46:31.953Z,99246.95
2023-05-15T22:49:00.572Z,99249.80
2023-05-15T22:51:27.647Z,99254.80
2023-05-15T22:53:54.507Z,99249.77
2023-05-15T22:56:21.514Z,99247.59
2023-05-15T22:58:49.032Z,99251.53
2023-05-15T23:01:16.854Z,99249.42
2023-05-15T23:03:43.834Z,99251.42
2023-05-15T23:06:10.869Z,99251.16
2023-05-15T23:08:38.292Z,99245.73
2023-05-15T23:11:05.340Z,99249.18
2023-05-15T23:13:32.695Z,99248.11
2023-05-15T23:15:59.677Z,99250.01
2023-05-15T23:18:26.796Z,99246.38
2023-05-15T23:20:54.166Z,99247.93
2023-05-15T23:23:21.299Z,99245.69
2023-05-15T23:25:48.238Z,99245.33
2023-05-15T23:28:15.435Z,99238.48
2023-05-15T23:30:42.267Z,99244.55
2023-05-15T23:33:09.441Z,99241.73
2023-05-15T23:35:36.541Z,99241.13
2023-05-15T23:38:03.801Z,99244.16
2023-05-15T23:40:31.599Z,99243.00
2023-05-15T23:42:58.840Z,99240.15
2023-05-15T23:45:25.663Z,99237.64
2023-05-15T23:47:52.832Z,99238.01
2023-05-15T23:50:21.274Z,99235.82
2023-05-15T23:52:50.783Z,99238.48
2023-05-15T23:55:18.035Z,99234.55
2023-05-15T23:57:47.028Z,99236.18
